createdAt,value
2019-02-14T00:00:06.496Z,2.50
2019-02-14T00:02:34.879Z,2.40
2019-02-14T00:05:03.900Z,2.40
2019-02-14T00:07:32.303Z,2.40
2019-02-14T00:10:00.689Z,2.50
2019-02-14T00:12:29.079Z,2.40
2019-02-14T00:14:57.471Z,2.40
2019-02-14T00:17:25.855Z,2.40
2019-02-14T00:19:54.240Z,2.40
2019-02-14T00:22:22.627Z,2.40
2019-02-14T00:24:51.020Z,2.40
2019-02-14T00:27:19.475Z,2.20
2019-02-14T00:29:47.860Z,2.20
2019-02-14T00:32:16.248Z,2.20
2019-02-14T00:34:44.632Z,2.20
2019-02-14T00:37:13.023Z,2.10
2019-02-14T00:39:41.409Z,2.10
2019-02-14T00:42:09.803Z,2.10
2019-02-14T00:44:38.179Z,2.10
2019-02-14T00:47:06.567Z,2.10
2019-02-14T00:49:34.956Z,2.10
2019-02-14T00:52:03.363Z,2.10
2019-02-14T00:54:31.723Z,2.10
2019-02-14T00:57:00.111Z,2.10
2019-02-14T00:59:28.820Z,2.20
2019-02-14T01:01:57.206Z,2.20
2019-02-14T01:04:25.598Z,2.10
2019-02-14T01:06:53.979Z,2.10
2019-02-14T01:09:22.386Z,2.10
2019-02-14T01:11:50.770Z,2.10
2019-02-14T01:14:19.231Z,2.10
2019-02-14T01:16:47.621Z,2.20
2019-02-14T01:19:16.584Z,2.20
2019-02-14T01:21:44.969Z,2.20
2019-02-14T01:24:13.359Z,2.10
2019-02-14T01:26:41.744Z,2.20
2019-02-14T01:29:10.136Z,2.20
2019-02-14T01:31:38.525Z,2.20
2019-02-14T01:34:06.985Z,2.20
2019-02-14T01:36:35.365Z,2.20
2019-02-14T01:39:04.207Z,2.10
2019-02-14T01:41:32.585Z,2.10
2019-02-14T01:44:00.985Z,2.10
2019-02-14T01:46:29.361Z,2.10
2019-02-14T01:48:57.751Z,2.10
2019-02-14T01:51:26.136Z,2.10
2019-02-14T01:53:54.533Z,2.10
2019-02-14T01:56:22.923Z,2.10
2019-02-14T01:58:51.313Z,2.10
2019-02-14T02:01:19.698Z,2.00
2019-02-14T02:03:48.156Z,2.10
2019-02-14T02:06:16.540Z,2.10
2019-02-14T02:08:44.931Z,2.00
2019-02-14T02:11:13.338Z,2.00
2019-02-14T02:13:41.736Z,2.00
2019-02-14T02:16:10.123Z,2.00
2019-02-14T02:18:39.583Z,2.00
2019-02-14T02:21:07.966Z,2.00
2019-02-14T02:23:36.348Z,1.90
2019-02-14T02:26:04.800Z,1.90
2019-02-14T02:28:33.335Z,1.90
2019-02-14T02:31:01.708Z,1.80
2019-02-14T02:33:30.128Z,1.80
2019-02-14T02:36:00.503Z,1.80
2019-02-14T02:38:28.601Z,1.90
2019-02-14T02:40:56.988Z,1.80
2019-02-14T02:43:25.378Z,1.80
2019-02-14T02:45:53.764Z,1.80
2019-02-14T02:48:22.163Z,1.90
2019-02-14T02:50:50.551Z,1.90
2019-02-14T02:53:19.005Z,1.90
2019-02-14T02:55:47.384Z,1.90
2019-02-14T02:58:15.778Z,1.90
2019-02-14T03:00:44.468Z,1.90
2019-02-14T03:03:12.855Z,1.90
2019-02-14T03:05:41.232Z,1.90
2019-02-14T03:08:09.646Z,1.90
2019-02-14T03:10:38.009Z,1.90
2019-02-14T03:13:06.400Z,1.90
2019-02-14T03:15:34.792Z,1.90
2019-02-14T03:18:03.248Z,1.80
2019-02-14T03:20:31.922Z,1.90
2019-02-14T03:23:00.303Z,1.90
2019-02-14T03:25:28.695Z,1.80
2019-02-14T03:27:57.080Z,1.80
2019-02-14T03:30:25.475Z,1.80
2019-02-14T03:32:53.852Z,1.80
2019-02-14T03:35:22.245Z,1.80
2019-02-14T03:37:50.627Z,1.80
2019-02-14T03:40:19.021Z,1.80
2019-02-14T03:42:47.400Z,1.80
2019-02-14T03:45:19.863Z,1.70
2019-02-14T03:47:48.247Z,1.70
2019-02-14T03:50:16.632Z,1.70
2019-02-14T03:52:45.367Z,1.60
2019-02-14T03:55:13.755Z,1.60
2019-02-14T03:57:42.147Z,1.60
2019-02-14T04:00:13.239Z,1.50
2019-02-14T04:02:41.625Z,1.50
2019-02-14T04:05:10.081Z,1.50
2019-02-14T04:07:39.104Z,1.50
2019-02-14T04:10:10.396Z,1.40
2019-02-14T04:12:38.776Z,1.40
2019-02-14T04:15:13.019Z,1.30
2019-02-14T04:17:41.401Z,1.30
2019-02-14T04:20:10.931Z,1.30
2019-02-14T04:22:39.312Z,1.30
2019-02-14T04:25:09.239Z,1.30
2019-02-14T04:27:37.625Z,1.30
2019-02-14T04:30:09.105Z,1.30
2019-02-14T04:32:37.488Z,1.30
2019-02-14T04:35:06.149Z,1.20
2019-02-14T04:37:34.527Z,1.20
2019-02-14T04:40:03.091Z,1.10
2019-02-14T04:42:31.715Z,1.00
2019-02-14T04:45:00.251Z,1.00
2019-02-14T04:47:28.768Z,1.00
2019-02-14T04:49:57.163Z,1.10
2019-02-14T04:52:25.545Z,1.10
2019-02-14T04:54:53.939Z,1.10
2019-02-14T04:57:22.323Z,1.10
2019-02-14T04:59:50.708Z,1.10
2019-02-14T05:02:19.089Z,1.10
2019-02-14T05:04:47.484Z,1.00
2019-02-14T05:07:15.869Z,1.00
2019-02-14T05:09:44.264Z,1.00
2019-02-14T05:12:12.644Z,1.00
2019-02-14T05:14:41.035Z,0.90
2019-02-14T05:17:09.414Z,0.90
2019-02-14T05:19:37.884Z,0.90
2019-02-14T05:22:06.276Z,0.90
2019-02-14T05:24:34.669Z,0.90
2019-02-14T05:27:03.060Z,0.80
2019-02-14T05:29:31.455Z,0.80
2019-02-14T05:31:59.840Z,0.80
2019-02-14T05:34:28.240Z,0.80
2019-02-14T05:36:56.703Z,0.70
2019-02-14T05:39:25.094Z,0.70
2019-02-14T05:41:53.480Z,0.70
2019-02-14T05:44:21.881Z,0.70
2019-02-14T05:46:50.267Z,0.70
2019-02-14T05:49:18.655Z,0.70
2019-02-14T05:51:47.035Z,0.70
2019-02-14T05:54:15.441Z,0.60
2019-02-14T05:56:43.828Z,0.60
2019-02-14T05:59:12.224Z,0.60
2019-02-14T06:01:40.619Z,0.60
2019-02-14T06:04:09.016Z,0.50
2019-02-14T06:06:37.404Z,0.50
2019-02-14T06:09:06.376Z,0.50
2019-02-14T06:11:34.776Z,0.40
2019-02-14T06:14:03.191Z,0.40
2019-02-14T06:16:31.586Z,0.40
2019-02-14T06:18:59.985Z,0.40
2019-02-14T06:21:28.375Z,0.50
2019-02-14T06:23:56.768Z,0.50
2019-02-14T06:26:25.477Z,0.40
2019-02-14T06:28:53.864Z,0.40
2019-02-14T06:31:22.515Z,0.50
2019-02-14T06:33:50.914Z,0.50
2019-02-14T06:36:19.355Z,0.50
2019-02-14T06:38:47.845Z,0.50
2019-02-14T06:41:16.257Z,0.50
2019-02-14T06:43:44.645Z,0.50
2019-02-14T06:46:13.047Z,0.50
2019-02-14T06:48:41.446Z,0.50
2019-02-14T06:51:09.855Z,0.60
2019-02-14T06:53:38.234Z,0.60
2019-02-14T06:56:06.634Z,0.60
2019-02-14T06:58:35.014Z,0.60
2019-02-14T07:01:03.419Z,0.60
2019-02-14T07:03:31.808Z,0.60
2019-02-14T07:06:00.200Z,0.60
2019-02-14T07:08:28.584Z,0.60
2019-02-14T07:10:57.695Z,0.70
2019-02-14T07:13:26.128Z,0.70
2019-02-14T07:15:54.551Z,0.80
2019-02-14T07:18:22.978Z,1.00
2019-02-14T07:20:51.373Z,1.20
2019-02-14T07:23:19.773Z,1.30
2019-02-14T07:25:48.175Z,1.60
2019-02-14T07:28:16.576Z,1.90
2019-02-14T07:30:44.980Z,2.40
2019-02-14T07:33:32.708Z,3.00
2019-02-14T07:36:01.113Z,3.40
2019-02-14T07:38:29.503Z,4.00
2019-02-14T07:40:57.900Z,4.50
2019-02-14T07:43:26.276Z,5.20
2019-02-14T07:45:54.668Z,5.80
2019-02-14T07:48:23.047Z,6.40
2019-02-14T07:50:51.442Z,7.00
2019-02-14T07:53:19.865Z,7.50
2019-02-14T07:55:48.242Z,7.90
2019-02-14T07:58:17.149Z,8.40
2019-02-14T08:00:45.535Z,8.90
2019-02-14T08:03:13.931Z,9.10
2019-02-14T08:05:42.300Z,9.40
2019-02-14T08:08:10.703Z,9.70
2019-02-14T08:10:39.164Z,10.00
2019-02-14T08:13:07.681Z,10.10
2019-02-14T08:15:36.071Z,10.10
2019-02-14T08:18:04.474Z,10.40
2019-02-14T08:20:32.856Z,10.60
2019-02-14T08:23:01.331Z,10.40
2019-02-14T08:25:29.716Z,10.20
2019-02-14T08:27:58.113Z,10.60
2019-02-14T08:30:26.492Z,9.90
2019-02-14T08:32:54.894Z,10.40
2019-02-14T08:35:23.284Z,10.30
2019-02-14T08:37:51.680Z,10.50
2019-02-14T08:40:23.142Z,10.20
2019-02-14T08:42:51.536Z,9.90
2019-02-14T08:45:19.915Z,9.90
2019-02-14T08:47:48.315Z,10.20
2019-02-14T08:50:16.700Z,10.50
2019-02-14T08:52:45.100Z,10.50
2019-02-14T08:55:13.487Z,10.30
2019-02-14T08:57:41.896Z,10.30
2019-02-14T09:00:12.690Z,10.40
2019-02-14T09:02:41.095Z,10.20
2019-02-14T09:05:09.548Z,10.50
2019-02-14T09:07:37.983Z,11.20
2019-02-14T09:10:16.585Z,11.50
2019-02-14T09:12:44.974Z,11.60
2019-02-14T09:15:14.508Z,11.60
2019-02-14T09:17:43.296Z,11.10
2019-02-14T09:20:17.373Z,10.90
2019-02-14T09:22:45.766Z,10.60
2019-02-14T09:25:14.158Z,10.40
2019-02-14T09:27:42.544Z,10.30
2019-02-14T09:30:13.158Z,10.60
2019-02-14T09:32:40.760Z,11.00
2019-02-14T09:35:09.991Z,11.00
2019-02-14T09:37:38.376Z,11.20
2019-02-14T09:40:12.207Z,11.40
2019-02-14T09:42:40.598Z,11.50
2019-02-14T09:45:11.350Z,11.00
2019-02-14T09:47:39.810Z,10.30
2019-02-14T09:50:10.555Z,10.70
2019-02-14T09:52:39.104Z,10.80
2019-02-14T09:55:09.943Z,10.90
2019-02-14T09:57:38.624Z,11.20
2019-02-14T10:00:17.419Z,12.20
2019-02-14T10:02:45.810Z,12.90
2019-02-14T10:05:15.274Z,12.80
2019-02-14T10:07:43.698Z,13.30
2019-02-14T10:10:17.631Z,14.00
2019-02-14T10:12:45.994Z,14.20
2019-02-14T10:15:14.612Z,14.20
2019-02-14T10:17:43.009Z,14.00
2019-02-14T10:20:15.905Z,14.00
2019-02-14T10:22:44.280Z,14.20
2019-02-14T10:25:13.220Z,14.50
2019-02-14T10:27:41.602Z,14.90
2019-02-14T10:30:13.040Z,15.00
2019-02-14T10:32:41.419Z,14.70
2019-02-14T10:35:10.091Z,14.10
2019-02-14T10:37:38.484Z,13.10
2019-02-14T10:40:09.780Z,13.30
2019-02-14T10:42:38.175Z,14.30
2019-02-14T10:45:12.255Z,14.30
2019-02-14T10:47:40.655Z,14.40
2019-02-14T10:50:10.794Z,14.10
2019-02-14T10:52:39.175Z,14.50
2019-02-14T10:55:10.027Z,14.50
2019-02-14T10:57:38.502Z,13.80
2019-02-14T11:00:16.210Z,13.30
2019-02-14T11:02:44.461Z,12.60
2019-02-14T11:05:14.404Z,13.00
2019-02-14T11:07:42.791Z,13.50
2019-02-14T11:10:13.027Z,14.10
2019-02-14T11:12:41.408Z,13.50
2019-02-14T11:15:12.647Z,13.20
2019-02-14T11:17:41.032Z,12.00
2019-02-14T11:20:11.872Z,12.60
2019-02-14T11:22:40.251Z,13.80
2019-02-14T11:25:11.354Z,14.10
2019-02-14T11:27:39.748Z,14.60
2019-02-14T11:30:13.820Z,15.00
2019-02-14T11:32:42.290Z,15.60
2019-02-14T11:35:11.064Z,14.80
2019-02-14T11:37:39.836Z,14.60
2019-02-14T11:40:10.863Z,14.70
2019-02-14T11:42:39.340Z,14.80
2019-02-14T11:45:16.519Z,14.60
2019-02-14T11:47:45.237Z,13.60
2019-02-14T11:50:13.648Z,13.80
2019-02-14T11:52:42.063Z,14.20
2019-02-14T11:55:11.187Z,14.40
2019-02-14T11:57:39.855Z,14.60
2019-02-14T12:00:15.717Z,14.80
2019-02-14T12:02:44.111Z,14.80
2019-02-14T12:05:12.511Z,13.70
2019-02-14T12:07:40.913Z,14.10
2019-02-14T12:10:13.554Z,14.60
2019-02-14T12:12:40.756Z,15.00
2019-02-14T12:15:11.462Z,15.10
2019-02-14T12:17:39.869Z,15.10
2019-02-14T12:20:12.553Z,15.10
2019-02-14T12:22:46.310Z,15.00
2019-02-14T12:25:13.449Z,15.30
2019-02-14T12:27:41.851Z,15.60
2019-02-14T12:30:12.807Z,15.30
2019-02-14T12:32:41.480Z,15.70
2019-02-14T12:35:09.970Z,15.90
2019-02-14T12:37:38.353Z,16.30
2019-02-14T12:40:09.809Z,16.60
2019-02-14T12:42:38.205Z,16.20
2019-02-14T12:45:09.779Z,16.10
2019-02-14T12:47:38.176Z,16.30
2019-02-14T12:50:09.007Z,16.00
2019-02-14T12:52:37.418Z,16.10
2019-02-14T12:55:06.940Z,16.40
2019-02-14T12:57:35.344Z,15.90
2019-02-14T13:00:05.536Z,16.10
2019-02-14T13:02:33.938Z,16.20
2019-02-14T13:05:02.331Z,15.90
2019-02-14T13:07:30.748Z,16.20
2019-02-14T13:09:59.136Z,16.40
2019-02-14T13:12:27.846Z,16.30
2019-02-14T13:14:56.243Z,16.70
2019-02-14T13:17:24.633Z,17.00
2019-02-14T13:19:53.042Z,17.10
2019-02-14T13:22:21.439Z,17.10
2019-02-14T13:24:49.848Z,17.30
2019-02-14T13:27:18.540Z,17.00
2019-02-14T13:29:47.228Z,16.80
2019-02-14T13:32:15.623Z,17.00
2019-02-14T13:34:44.026Z,17.10
2019-02-14T13:37:12.416Z,17.20
2019-02-14T13:39:40.818Z,17.30
2019-02-14T13:42:09.204Z,17.40
2019-02-14T13:44:37.597Z,17.00
2019-02-14T13:47:05.989Z,17.10
2019-02-14T13:49:34.390Z,16.90
2019-02-14T13:52:02.779Z,17.00
2019-02-14T13:54:31.176Z,16.60
2019-02-14T13:56:59.563Z,16.60
2019-02-14T13:59:27.959Z,16.70
2019-02-14T14:01:56.358Z,16.80
2019-02-14T14:04:25.878Z,16.50
2019-02-14T14:06:54.268Z,16.10
2019-02-14T14:09:22.666Z,16.20
2019-02-14T14:11:51.064Z,16.10
2019-02-14T14:14:19.469Z,16.10
2019-02-14T14:16:47.865Z,16.00
2019-02-14T14:19:16.257Z,16.00
2019-02-14T14:21:44.635Z,15.70
2019-02-14T14:24:13.042Z,15.80
2019-02-14T14:26:41.442Z,15.80
2019-02-14T14:29:09.835Z,15.70
2019-02-14T14:31:38.223Z,15.50
2019-02-14T14:34:06.623Z,15.40
2019-02-14T14:36:35.012Z,15.20
2019-02-14T14:39:04.551Z,15.30
2019-02-14T14:41:33.080Z,15.20
2019-02-14T14:44:03.124Z,15.20
2019-02-14T14:46:32.488Z,15.20
2019-02-14T14:49:00.876Z,15.20
2019-02-14T14:51:29.280Z,15.10
2019-02-14T14:53:57.668Z,15.10
2019-02-14T14:56:26.144Z,15.10
2019-02-14T14:58:54.540Z,15.10
2019-02-14T15:01:22.927Z,14.90
2019-02-14T15:03:52.168Z,14.80
2019-02-14T15:06:20.801Z,15.00
2019-02-14T15:08:49.181Z,15.10
2019-02-14T15:11:17.579Z,15.20
2019-02-14T15:13:45.976Z,15.10
2019-02-14T15:16:14.366Z,14.70
2019-02-14T15:18:42.823Z,14.60
2019-02-14T15:21:11.211Z,14.60
2019-02-14T15:23:39.646Z,14.60
2019-02-14T15:26:08.086Z,14.40
2019-02-14T15:28:37.537Z,14.20
2019-02-14T15:31:06.152Z,14.30
2019-02-14T15:33:34.552Z,14.10
2019-02-14T15:36:03.014Z,14.20
2019-02-14T15:38:32.141Z,14.10
2019-02-14T15:41:01.519Z,14.00
2019-02-14T15:43:29.902Z,14.20
2019-02-14T15:45:58.327Z,14.10
2019-02-14T15:48:26.967Z,14.00
2019-02-14T15:50:56.796Z,13.70
2019-02-14T15:53:25.344Z,13.70
2019-02-14T15:55:53.752Z,13.60
2019-02-14T15:58:22.232Z,13.40
2019-02-14T16:00:51.811Z,13.30
2019-02-14T16:03:20.747Z,13.10
2019-02-14T16:05:49.155Z,13.10
2019-02-14T16:08:19.449Z,12.90
2019-02-14T16:10:49.166Z,12.90
2019-02-14T16:13:17.767Z,12.70
2019-02-14T16:15:46.410Z,12.80
2019-02-14T16:18:14.821Z,12.70
2019-02-14T16:20:44.262Z,12.70
2019-02-14T16:23:12.867Z,12.60
2019-02-14T16:25:41.261Z,12.50
2019-02-14T16:28:11.511Z,12.30
2019-02-14T16:30:39.771Z,12.20
2019-02-14T16:33:08.168Z,12.20
2019-02-14T16:35:36.547Z,12.10
2019-02-14T16:38:04.940Z,12.00
2019-02-14T16:40:38.560Z,11.90
2019-02-14T16:43:03.489Z,11.80
2019-02-14T16:45:31.871Z,11.60
2019-02-14T16:48:00.271Z,11.50
2019-02-14T16:50:28.659Z,11.40
2019-02-14T16:52:57.051Z,11.40
2019-02-14T16:55:25.447Z,11.40
2019-02-14T16:57:53.848Z,11.30
2019-02-14T17:00:22.239Z,11.20
2019-02-14T17:02:50.636Z,11.00
2019-02-14T17:05:19.020Z,10.90
2019-02-14T17:07:47.504Z,10.80
2019-02-14T17:10:15.895Z,10.80
2019-02-14T17:12:44.299Z,10.70
2019-02-14T17:15:12.680Z,10.70
2019-02-14T17:17:41.078Z,10.60
2019-02-14T17:20:11.170Z,10.60
2019-02-14T17:22:39.576Z,10.50
2019-02-14T17:25:08.336Z,10.50
2019-02-14T17:27:36.801Z,10.40
2019-02-14T17:30:07.733Z,10.30
2019-02-14T17:32:36.225Z,10.20
2019-02-14T17:35:05.427Z,10.20
2019-02-14T17:37:33.836Z,10.10
2019-02-14T17:40:02.306Z,9.90
2019-02-14T17:42:30.699Z,9.80
2019-02-14T17:44:59.103Z,9.70
2019-02-14T17:47:27.491Z,9.70
2019-02-14T17:49:55.888Z,9.60
2019-02-14T17:52:24.267Z,9.50
2019-02-14T17:54:52.663Z,9.40
2019-02-14T17:57:21.047Z,9.30
2019-02-14T17:59:49.635Z,9.20
2019-02-14T18:02:18.596Z,9.10
2019-02-14T18:04:46.980Z,9.00
2019-02-14T18:07:15.819Z,8.90
2019-02-14T18:09:44.241Z,8.80
2019-02-14T18:12:12.649Z,8.60
2019-02-14T18:14:41.040Z,8.50
2019-02-14T18:17:09.530Z,8.50
2019-02-14T18:19:37.988Z,8.40
2019-02-14T18:22:06.371Z,8.30
2019-02-14T18:24:34.765Z,8.30
2019-02-14T18:27:03.142Z,8.20
2019-02-14T18:29:31.536Z,8.20
2019-02-14T18:31:59.926Z,8.20
2019-02-14T18:34:28.314Z,8.10
2019-02-14T18:36:56.699Z,8.00
2019-02-14T18:39:44.437Z,8.00
2019-02-14T18:42:12.832Z,7.90
2019-02-14T18:44:41.226Z,7.90
2019-02-14T18:47:09.619Z,7.90
2019-02-14T18:49:38.029Z,7.70
2019-02-14T18:52:06.396Z,7.70
2019-02-14T18:54:34.783Z,7.60
2019-02-14T18:57:03.173Z,7.50
2019-02-14T18:59:31.873Z,7.40
2019-02-14T19:02:00.261Z,7.40
2019-02-14T19:04:28.649Z,7.30
2019-02-14T19:06:57.052Z,7.20
2019-02-14T19:09:25.496Z,7.20
2019-02-14T19:11:53.867Z,7.10
2019-02-14T19:14:22.274Z,7.10
2019-02-14T19:16:50.647Z,7.00
2019-02-14T19:19:19.042Z,6.90
2019-02-14T19:21:47.423Z,6.80
2019-02-14T19:24:15.815Z,6.80
2019-02-14T19:26:44.205Z,6.60
2019-02-14T19:29:12.587Z,6.60
2019-02-14T19:31:41.227Z,6.50
2019-02-14T19:34:09.609Z,6.50
2019-02-14T19:36:38.000Z,6.50
2019-02-14T19:39:06.381Z,6.50
2019-02-14T19:41:34.775Z,6.40
2019-02-14T19:44:03.154Z,6.30
2019-02-14T19:46:31.560Z,6.30
2019-02-14T19:48:59.943Z,6.00
2019-02-14T19:51:28.349Z,6.00
2019-02-14T19:53:56.731Z,6.00
2019-02-14T19:56:25.124Z,6.00
2019-02-14T19:58:53.509Z,5.90
2019-02-14T20:01:21.900Z,6.00
2019-02-14T20:03:50.276Z,5.90
2019-02-14T20:06:18.663Z,5.90
2019-02-14T20:08:47.048Z,5.90
2019-02-14T20:11:15.439Z,5.80
2019-02-14T20:13:49.592Z,5.70
2019-02-14T20:16:13.955Z,5.70
2019-02-14T20:18:42.330Z,5.30
2019-02-14T20:21:10.724Z,5.30
2019-02-14T20:23:39.104Z,5.40
2019-02-14T20:26:07.500Z,5.30
2019-02-14T20:28:35.901Z,5.30
2019-02-14T20:31:04.289Z,5.20
2019-02-14T20:33:32.671Z,5.20
2019-02-14T20:36:01.071Z,5.20
2019-02-14T20:38:29.457Z,5.10
2019-02-14T20:40:57.851Z,5.10
2019-02-14T20:43:26.308Z,5.10
2019-02-14T20:45:54.768Z,5.00
2019-02-14T20:48:23.225Z,5.00
2019-02-14T20:50:51.617Z,4.90
2019-02-14T20:53:20.049Z,4.80
2019-02-14T20:55:48.428Z,4.80
2019-02-14T20:58:16.891Z,4.70
2019-02-14T21:00:45.291Z,4.60
2019-02-14T21:03:13.679Z,4.70
2019-02-14T21:05:42.063Z,4.60
2019-02-14T21:08:10.523Z,4.50
2019-02-14T21:10:38.908Z,4.40
2019-02-14T21:13:07.564Z,4.40
2019-02-14T21:15:35.931Z,4.40
2019-02-14T21:18:04.319Z,4.40
2019-02-14T21:20:32.708Z,4.30
2019-02-14T21:23:01.147Z,4.30
2019-02-14T21:25:29.572Z,4.30
2019-02-14T21:27:58.199Z,4.30
2019-02-14T21:30:26.589Z,4.20
2019-02-14T21:32:55.052Z,4.00
2019-02-14T21:35:23.514Z,4.00
2019-02-14T21:37:51.900Z,4.00
2019-02-14T21:40:20.577Z,4.00
2019-02-14T21:42:49.114Z,3.90
2019-02-14T21:45:18.222Z,3.90
2019-02-14T21:47:46.738Z,3.90
2019-02-14T21:50:15.985Z,3.80
2019-02-14T21:52:44.681Z,3.80
2019-02-14T21:55:14.344Z,3.70
2019-02-14T21:57:42.815Z,3.70
2019-02-14T22:00:19.979Z,3.70
2019-02-14T22:02:48.921Z,3.60
2019-02-14T22:05:17.498Z,3.60
2019-02-14T22:07:45.881Z,3.50
2019-02-14T22:10:14.288Z,3.50
2019-02-14T22:12:43.989Z,3.50
2019-02-14T22:15:18.631Z,3.40
2019-02-14T22:17:47.012Z,3.40
2019-02-14T22:20:15.409Z,3.40
2019-02-14T22:22:43.790Z,3.40
2019-02-14T22:25:12.194Z,3.40
2019-02-14T22:27:41.049Z,3.30
2019-02-14T22:30:15.925Z,3.30
2019-02-14T22:32:45.039Z,3.30
2019-02-14T22:35:13.672Z,3.30
2019-02-14T22:37:42.053Z,3.30
2019-02-14T22:40:11.679Z,3.30
2019-02-14T22:42:46.509Z,3.20
2019-02-14T22:45:13.578Z,3.20
2019-02-14T22:47:43.388Z,3.20
2019-02-14T22:50:12.319Z,3.20
2019-02-14T22:52:40.707Z,3.20
2019-02-14T22:55:10.666Z,3.10
2019-02-14T22:57:39.054Z,3.20
2019-02-14T23:00:13.420Z,3.20
2019-02-14T23:02:41.811Z,3.20
2019-02-14T23:05:10.807Z,3.10
2019-02-14T23:07:39.187Z,3.10
2019-02-14T23:10:07.575Z,3.10
2019-02-14T23:12:36.027Z,3.00
2019-02-14T23:15:06.475Z,3.00
2019-02-14T23:17:34.864Z,3.00
2019-02-14T23:20:03.545Z,2.90
2019-02-14T23:22:31.940Z,3.00
2019-02-14T23:25:00.320Z,2.90
2019-02-14T23:27:28.711Z,3.00
2019-02-14T23:29:57.095Z,3.00
2019-02-14T23:32:27.072Z,3.00
2019-02-14T23:34:55.652Z,3.00
2019-02-14T23:37:24.047Z,3.00
2019-02-14T23:39:52.430Z,3.00
2019-02-14T23:42:20.887Z,3.00
2019-02-14T23:44:49.277Z,3.00
2019-02-14T23:47:17.673Z,3.00
2019-02-14T23:49:46.060Z,3.00
2019-02-14T23:52:14.447Z,3.00
2019-02-14T23:54:42.831Z,3.00
2019-02-14T23:57:11.229Z,3.00
2019-02-14T23:59:39.600Z,3.00
